createdAt,value
2022-11-05T00:02:39.314Z,10.4
2022-11-05T00:07:51.555Z,10.38
2022-11-05T00:13:03.614Z,10.4
2022-11-05T00:18:15.860Z,10.4
2022-11-05T00:23:28.034Z,10.43
2022-11-05T00:28:40.222Z,10.44
2022-11-05T00:33:52.514Z,10.44
2022-11-05T00:39:04.810Z,10.42
2022-11-05T00:44:16.899Z,10.42
2022-11-05T00:49:29.406Z,10.42
2022-11-05T00:54:41.491Z,10.41
2022-11-05T00:59:53.827Z,10.4
2022-11-05T01:05:06.089Z,10.4
2022-11-05T01:10:18.337Z,10.39
2022-11-05T01:15:30.925Z,10.41
2022-11-05T01:20:43.232Z,10.39
2022-11-05T01:25:55.681Z,10.38
2022-11-05T01:31:08.032Z,10.36
2022-11-05T01:36:20.500Z,10.34
2022-11-05T01:41:32.686Z,10.31
2022-11-05T01:46:44.988Z,10.29
2022-11-05T01:51:57.377Z,10.25
2022-11-05T01:57:09.529Z,10.23
2022-11-05T02:02:21.930Z,10.21
2022-11-05T02:07:34.325Z,10.15
2022-11-05T02:12:46.724Z,10.09
2022-11-05T02:17:58.941Z,10.05
2022-11-05T02:23:11.810Z,9.99
2022-11-05T02:28:23.715Z,9.92
2022-11-05T02:33:36.000Z,9.89
2022-11-05T02:38:48.469Z,9.83
2022-11-05T02:44:00.778Z,9.81
2022-11-05T02:49:13.201Z,9.78
2022-11-05T02:54:25.481Z,9.73
2022-11-05T02:59:37.960Z,9.68
2022-11-05T03:04:50.360Z,9.68
2022-11-05T03:10:02.642Z,9.63
2022-11-05T03:15:14.909Z,9.63
2022-11-05T03:20:27.033Z,9.63
2022-11-05T03:25:39.408Z,9.63
2022-11-05T03:30:51.644Z,9.6
2022-11-05T03:36:03.882Z,9.6
2022-11-05T03:41:16.406Z,9.55
2022-11-05T03:46:28.633Z,9.54
2022-11-05T03:51:40.838Z,9.49
2022-11-05T03:56:53.103Z,9.47
2022-11-05T04:02:05.452Z,9.43
2022-11-05T04:07:17.692Z,9.38
2022-11-05T04:12:29.991Z,9.31
2022-11-05T04:17:42.348Z,9.23
2022-11-05T04:22:54.529Z,9.21
2022-11-05T04:28:07.112Z,9.2
2022-11-05T04:33:19.541Z,9.18
2022-11-05T04:38:31.737Z,9.15
2022-11-05T04:43:44.208Z,9.1
2022-11-05T04:48:56.520Z,9.05
2022-11-05T04:54:08.936Z,9.04
2022-11-05T04:59:21.191Z,9.02
2022-11-05T05:04:33.307Z,8.93
2022-11-05T05:09:45.613Z,8.92
2022-11-05T05:14:58.042Z,8.82
2022-11-05T05:20:10.266Z,8.8
2022-11-05T05:25:22.380Z,8.78
2022-11-05T05:30:34.716Z,8.72
2022-11-05T05:35:47.133Z,8.67
2022-11-05T05:40:59.333Z,8.64
2022-11-05T05:46:11.691Z,8.65
2022-11-05T05:51:24.118Z,8.61
2022-11-05T05:56:36.619Z,8.55
2022-11-05T06:01:48.907Z,8.48
2022-11-05T06:07:01.177Z,8.43
2022-11-05T06:12:13.361Z,8.37
2022-11-05T06:17:25.563Z,8.34
2022-11-05T06:22:38.000Z,8.28
2022-11-05T06:27:50.221Z,8.22
2022-11-05T06:33:02.463Z,8.19
2022-11-05T06:38:14.841Z,8.12
2022-11-05T06:43:27.198Z,8.1
2022-11-05T06:48:39.578Z,8.12
2022-11-05T06:53:51.750Z,8.13
2022-11-05T06:59:04.080Z,8.15
2022-11-05T07:04:16.523Z,8.16
2022-11-05T07:09:28.721Z,8.16
2022-11-05T07:14:41.152Z,8.18
2022-11-05T07:19:53.498Z,8.22
2022-11-05T07:25:05.816Z,8.23
2022-11-05T07:30:18.320Z,8.19
2022-11-05T07:35:35.634Z,8.21
2022-11-05T07:40:43.198Z,8.25
2022-11-05T07:45:55.300Z,8.28
2022-11-05T07:51:07.861Z,8.18
2022-11-05T07:56:20.076Z,8.17
2022-11-05T08:01:32.327Z,8.13
2022-11-05T08:06:44.535Z,8.1
2022-11-05T08:12:01.584Z,8.12
2022-11-05T08:17:09.201Z,8.21
2022-11-05T08:22:21.638Z,8.31
2022-11-05T08:27:33.906Z,8.41
2022-11-05T08:32:46.418Z,8.49
2022-11-05T08:37:58.980Z,8.58
2022-11-05T08:43:11.497Z,8.71
2022-11-05T08:48:23.693Z,8.84
2022-11-05T08:53:36.152Z,9.01
2022-11-05T08:58:48.230Z,9.18
2022-11-05T09:04:00.629Z,9.37
2022-11-05T09:09:13.023Z,9.51
2022-11-05T09:14:25.617Z,9.64
2022-11-05T09:19:39.875Z,9.88
2022-11-05T09:24:50.506Z,10.05
2022-11-05T09:30:02.821Z,10.27
2022-11-05T09:35:15.301Z,10.49
2022-11-05T09:40:27.683Z,10.66
2022-11-05T09:45:40.065Z,10.85
2022-11-05T09:50:52.512Z,11.1
2022-11-05T09:56:05.011Z,11.44
2022-11-05T10:01:17.456Z,11.72
2022-11-05T10:06:29.579Z,11.89
2022-11-05T10:11:42.108Z,12.18
2022-11-05T10:16:54.294Z,12.47
2022-11-05T10:22:07.336Z,12.64
2022-11-05T10:27:19.180Z,12.9
2022-11-05T10:32:31.383Z,12.97
2022-11-05T10:37:43.895Z,13.23
2022-11-05T10:42:56.559Z,13.5
2022-11-05T10:48:08.957Z,13.74
2022-11-05T10:53:21.377Z,13.89
2022-11-05T10:58:33.990Z,13.95
2022-11-05T11:03:46.254Z,14.11
2022-11-05T11:08:58.564Z,14.38
2022-11-05T11:14:10.886Z,14.65
2022-11-05T11:19:23.623Z,14.86
2022-11-05T11:24:35.847Z,15.08
2022-11-05T11:29:49.493Z,15.25
2022-11-05T11:35:00.710Z,15.39
2022-11-05T11:40:12.808Z,15.45
2022-11-05T11:45:25.272Z,15.44
2022-11-05T11:50:37.568Z,15.68
2022-11-05T11:55:49.873Z,15.83
2022-11-05T12:01:02.011Z,15.64
2022-11-05T12:06:14.415Z,15.7
2022-11-05T12:11:26.516Z,15.44
2022-11-05T12:16:39.259Z,15.59
2022-11-05T12:21:53.196Z,15.96
2022-11-05T12:27:03.877Z,16.04
2022-11-05T12:32:16.516Z,15.91
2022-11-05T12:37:28.974Z,16.08
2022-11-05T12:42:41.124Z,16.22
2022-11-05T12:47:53.880Z,16.35
2022-11-05T12:53:06.226Z,16.59
2022-11-05T12:58:18.690Z,16.77
2022-11-05T13:03:31.107Z,16.82
2022-11-05T13:08:43.455Z,17.04
2022-11-05T13:13:55.728Z,17.06
2022-11-05T13:19:07.890Z,16.89
2022-11-05T13:24:19.985Z,16.47
2022-11-05T13:29:32.196Z,16.49
2022-11-05T13:34:44.561Z,16.6
2022-11-05T13:39:56.741Z,16.35
2022-11-05T13:45:09.076Z,16.21
2022-11-05T13:50:21.417Z,16.09
2022-11-05T13:55:34.140Z,15.97
2022-11-05T14:00:46.274Z,15.64
2022-11-05T14:05:58.962Z,15.8
2022-11-05T14:11:11.173Z,16.17
2022-11-05T14:16:23.723Z,16.43
2022-11-05T14:21:36.089Z,16.35
2022-11-05T14:26:48.277Z,16.3
2022-11-05T14:32:09.428Z,15.58
2022-11-05T14:37:13.048Z,15.24
2022-11-05T14:42:25.155Z,14.67
2022-11-05T14:47:37.663Z,14.34
2022-11-05T14:52:50.027Z,14.44
2022-11-05T14:58:02.400Z,14.52
2022-11-05T15:03:14.848Z,14.35
2022-11-05T15:08:27.296Z,14.26
2022-11-05T15:13:39.624Z,14.06
2022-11-05T15:18:51.930Z,13.68
2022-11-05T15:24:04.349Z,13.43
2022-11-05T15:29:16.651Z,13.2
2022-11-05T15:34:28.968Z,12.9
2022-11-05T15:39:41.347Z,12.64
2022-11-05T15:44:53.611Z,12.43
2022-11-05T15:50:11.556Z,12.4
2022-11-05T15:55:19.124Z,12.39
2022-11-05T16:00:31.363Z,12.28
2022-11-05T16:05:43.522Z,12.12
2022-11-05T16:10:55.919Z,11.83
2022-11-05T16:16:08.160Z,11.73
2022-11-05T16:21:20.417Z,11.7
2022-11-05T16:31:45.572Z,11.57
2022-11-05T16:36:57.847Z,11.51
2022-11-05T16:42:10.155Z,11.26
2022-11-05T16:47:22.537Z,10.95
2022-11-05T16:52:34.971Z,10.68
2022-11-05T16:57:47.312Z,10.53
2022-11-05T17:02:59.782Z,10.5
2022-11-05T17:08:12.249Z,10.31
2022-11-05T17:13:25.200Z,10.14
2022-11-05T17:18:37.299Z,9.97
2022-11-05T17:23:49.535Z,9.77
2022-11-05T17:29:01.842Z,9.72
2022-11-05T17:34:14.182Z,9.73
2022-11-05T17:39:31.333Z,9.8
2022-11-05T17:44:39.122Z,9.73
2022-11-05T17:49:51.554Z,9.61
2022-11-05T17:55:03.688Z,9.53
2022-11-05T18:00:15.994Z,9.51
2022-11-05T18:05:28.178Z,9.52
2022-11-05T18:10:40.616Z,9.51
2022-11-05T18:15:53.085Z,9.53
2022-11-05T18:21:06.269Z,9.56
2022-11-05T18:26:18.823Z,9.66
2022-11-05T18:31:31.278Z,9.76
2022-11-05T18:36:44.100Z,9.76
2022-11-05T18:41:56.404Z,9.83
2022-11-05T18:47:09.118Z,9.81
2022-11-05T18:52:21.658Z,9.84
2022-11-05T18:57:34.205Z,9.94
2022-11-05T19:02:46.772Z,10.09
2022-11-05T19:07:58.829Z,10.16
2022-11-05T19:13:11.201Z,10.16
2022-11-05T19:18:23.812Z,10.26
2022-11-05T19:23:35.785Z,10.34
2022-11-05T19:28:48.241Z,10.36
2022-11-05T19:34:00.670Z,10.34
2022-11-05T19:39:13.012Z,10.31
2022-11-05T19:44:25.392Z,10.19
2022-11-05T19:49:37.973Z,10.09
2022-11-05T19:54:50.470Z,10.06
2022-11-05T20:00:02.885Z,10.08
2022-11-05T20:05:15.353Z,10.07
2022-11-05T20:10:27.867Z,10.04
2022-11-05T20:15:40.776Z,10.01
2022-11-05T20:20:53.452Z,9.97
2022-11-05T20:26:05.629Z,9.88
2022-11-05T20:31:17.986Z,9.79
2022-11-05T20:36:30.364Z,9.75
2022-11-05T20:41:42.705Z,9.72
2022-11-05T20:46:55.078Z,9.66
2022-11-05T20:52:07.482Z,9.57
2022-11-05T20:57:19.760Z,9.59
2022-11-05T21:02:32.264Z,9.57
2022-11-05T21:07:44.425Z,9.51
2022-11-05T21:12:56.869Z,9.46
2022-11-05T21:18:09.365Z,9.38
2022-11-05T21:23:21.609Z,9
2022-11-05T21:28:33.716Z,8.45
2022-11-05T21:33:47.811Z,8.1
2022-11-05T21:38:58.296Z,8.05
2022-11-05T21:44:10.790Z,8.36
2022-11-05T21:49:23.276Z,8.64
2022-11-05T21:54:35.781Z,8.84
2022-11-05T21:59:48.068Z,8.91
2022-11-05T22:05:00.403Z,8.97
2022-11-05T22:10:16.004Z,8.95
2022-11-05T22:15:25.144Z,8.9
2022-11-05T22:20:37.456Z,8.89
2022-11-05T22:25:49.814Z,8.87
2022-11-05T22:31:02.079Z,8.83
2022-11-05T22:36:14.441Z,8.64
2022-11-05T22:41:26.798Z,8.68
2022-11-05T22:46:39.074Z,8.68
2022-11-05T22:51:51.633Z,8.76
2022-11-05T22:57:03.786Z,8.74
2022-11-05T23:02:16.171Z,8.71
2022-11-05T23:07:28.588Z,8.69
2022-11-05T23:12:41.054Z,8.71
2022-11-05T23:17:53.534Z,8.66
2022-11-05T23:23:05.748Z,8.65
2022-11-05T23:28:18.107Z,8.67
2022-11-05T23:33:30.404Z,8.59
2022-11-05T23:38:42.713Z,8.56
2022-11-05T23:43:54.930Z,8.56
2022-11-05T23:49:07.253Z,8.54
2022-11-05T23:54:20.130Z,8.49
2022-11-05T23:59:32.500Z,8.34
